Time;durP1;ratioP1;P1;durP2;ratioP2;P2;SDS_P1;SDS_P2;PMS_P1;PMS_P2;Temp;Humidity;BMP_temperature;BMP_pressure;BME280_temperature;BME280_humidity;BME280_pressure;Samples;Min_cycle;Max_cycle;Signal;HPM_P1;HPM_P2
2021/07/25 00:00:53;;;;;;;6.65;3.50;;;;;;;17.72;100.00;98340.94;5109628;28;20216;-84
2021/07/25 00:03:21;;;;;;;11.13;4.30;;;;;;;17.79;100.00;98352.59;5102877;28;20117;-84
2021/07/25 00:06:21;;;;;;;11.70;4.60;;;;;;;17.65;99.15;98328.22;5111342;28;20048;-84
2021/07/25 00:08:53;;;;;;;15.32;4.55;;;;;;;17.72;99.86;98341.78;5108293;28;20497;-84
2021/07/25 00:11:32;;;;;;;12.38;4.68;;;;;;;17.96;99.50;98375.44;5110721;28;20376;-84
2021/07/25 00:14:17;;;;;;;7.85;5.03;;;;;;;17.84;98.67;98361.75;5108960;28;20061;-84
2021/07/25 00:16:48;;;;;;;15.93;4.90;;;;;;;18.08;97.24;98367.09;5106852;28;20115;-84
2021/07/25 00:19:17;;;;;;;22.13;4.50;;;;;;;17.90;98.34;98359.09;5110937;28;20040;-84
2021/07/25 00:21:49;;;;;;;9.82;4.20;;;;;;;17.76;99.41;98373.16;5109163;28;20040;-84
2021/07/25 00:24:30;;;;;;;14.70;5.25;;;;;;;17.75;99.22;98374.28;5113420;28;20046;-85
2021/07/25 00:27:02;;;;;;;10.57;5.43;;;;;;;17.68;99.28;98351.63;5111929;28;20051;-83
2021/07/25 00:32:26;;;;;;;9.93;4.50;;;;;;;17.87;98.00;98352.19;5105614;28;20559;-84
2021/07/25 00:35:24;;;;;;;9.32;4.65;;;;;;;17.67;99.17;98345.28;5109257;28;20044;-84
2021/07/25 00:37:55;;;;;;;8.80;4.63;;;;;;;17.68;100.00;98360.69;5103063;28;20143;-84
2021/07/25 00:40:31;;;;;;;9.45;4.60;;;;;;;17.64;100.00;98358.69;5105716;28;20055;-83
2021/07/25 00:42:59;;;;;;;10.40;4.57;;;;;;;17.90;99.62;98381.09;5109625;28;20052;-84
2021/07/25 00:45:44;;;;;;;10.25;5.20;;;;;;;17.96;98.81;98372.69;5104962;28;20461;-83
2021/07/25 00:48:32;;;;;;;10.85;4.60;;;;;;;17.79;99.81;98369.09;5094130;28;20491;-84
2021/07/25 00:51:11;;;;;;;7.90;5.15;;;;;;;17.93;99.25;98364.09;5113757;28;20048;-84
2021/07/25 00:53:44;;;;;;;8.70;4.95;;;;;;;17.95;98.95;98364.69;5111437;28;20048;-84
2021/07/25 00:56:16;;;;;;;18.77;5.70;;;;;;;17.94;99.58;98374.03;5108712;28;20124;-84
2021/07/25 01:02:02;;;;;;;7.45;4.50;;;;;;;17.91;100.00;98367.09;5105160;28;20128;-83
2021/07/25 01:04:59;;;;;;;10.43;4.55;;;;;;;17.81;99.85;98356.78;5114630;28;20051;-84
2021/07/25 01:07:41;;;;;;;7.50;4.45;;;;;;;17.83;99.94;98360.09;5106374;28;20410;-84
2021/07/25 01:10:20;;;;;;;7.47;4.82;;;;;;;17.72;100.00;98349.19;5113560;28;20495;-83
2021/07/25 01:13:20;;;;;;;7.03;5.15;;;;;;;17.75;100.00;98355.03;5113215;28;20056;-84
2021/07/25 01:15:59;;;;;;;;;;;;;;;17.80;100.00;98363.34;5108440;28;20073;-83
2021/07/25 01:18:32;;;;;;;16.03;6.17;;;;;;;17.85;100.00;98354.34;5113417;28;20286;-83
2021/07/25 01:21:07;;;;;;;11.88;5.82;;;;;;;17.95;99.91;98348.19;5113628;28;20039;-83
2021/07/25 01:23:40;;;;;;;11.60;5.75;;;;;;;17.87;100.00;98352.19;5113560;28;20044;-83
2021/07/25 01:26:17;;;;;;;13.10;5.82;;;;;;;17.76;100.00;98342.09;5094719;28;20058;-84
2021/07/25 01:28:47;;;;;;;6.93;5.00;;;;;;;17.83;100.00;98337.28;5102067;28;20073;-83
2021/07/25 01:31:24;;;;;;;;;;;;;;;17.90;100.00;98332.47;5101061;28;20431;-84
2021/07/25 01:33:54;;;;;;;10.65;6.00;;;;;;;17.79;100.00;98281.13;5104938;28;20010;-83
2021/07/25 01:39:19;;;;;;;13.48;7.70;;;;;;;17.75;100.00;98266.22;5094885;28;20055;-83
2021/07/25 01:41:46;;;;;;;14.52;7.88;;;;;;;17.78;100.00;98277.56;5108369;28;20048;-84
2021/07/25 01:44:18;;;;;;;14.32;7.47;;;;;;;17.73;100.00;98313.19;5106420;28;20509;-84
2021/07/25 01:46:47;;;;;;;12.35;7.00;;;;;;;17.72;100.00;98343.69;5108419;28;20139;-84
2021/07/25 01:49:14;;;;;;;13.75;7.65;;;;;;;17.71;100.00;98358.53;5108840;28;20040;-84
2021/07/25 01:51:49;;;;;;;16.33;7.68;;;;;;;17.84;100.00;98352.69;5106000;28;20044;-84
2021/07/25 01:54:25;;;;;;;34.60;7.95;;;;;;;17.77;100.00;98343.78;5104575;28;20062;-84
2021/07/25 01:56:52;;;;;;;18.52;7.55;;;;;;;17.82;100.00;98354.84;5101628;28;20052;-82
2021/07/25 01:59:25;;;;;;;16.95;8.15;;;;;;;17.83;100.00;98331.78;5112111;28;20044;-83
2021/07/25 02:01:58;;;;;;;16.02;7.75;;;;;;;17.90;100.00;98346.22;5105461;28;20051;-84
2021/07/25 02:04:30;;;;;;;14.20;8.30;;;;;;;17.95;100.00;98361.94;5107570;28;20044;-84
2021/07/25 02:07:01;;;;;;;18.52;8.20;;;;;;;18.08;100.00;98371.75;5094945;28;20048;-83
2021/07/25 02:09:28;;;;;;;17.83;8.00;;;;;;;17.92;100.00;98348.72;5109539;28;20092;-84
2021/07/25 02:12:00;;;;;;;17.13;7.80;;;;;;;17.92;100.00;98352.28;5097485;28;20051;-84
2021/07/25 02:14:29;;;;;;;16.05;7.30;;;;;;;18.00;100.00;98360.09;5096782;28;20394;-84
2021/07/25 02:17:00;;;;;;;15.35;7.55;;;;;;;17.95;100.00;98349.03;5102206;28;20044;-84
2021/07/25 02:19:31;;;;;;;18.58;7.75;;;;;;;18.04;100.00;98325.50;5106851;28;20455;-84
2021/07/25 02:22:02;;;;;;;21.17;8.20;;;;;;;17.95;100.00;98348.19;5110474;28;20544;-84
2021/07/25 02:24:31;;;;;;;13.57;7.68;;;;;;;17.82;100.00;98336.41;5105498;28;20044;-83
2021/07/25 02:27:07;;;;;;;19.10;8.57;;;;;;;17.79;100.00;98352.59;5094513;28;20135;-83
2021/07/25 02:29:34;;;;;;;18.23;7.55;;;;;;;17.85;100.00;98379.09;5109333;28;20071;-83
2021/07/25 02:32:03;;;;;;;13.18;7.30;;;;;;;17.78;100.00;98368.28;5105945;28;20046;-84
2021/07/25 02:34:36;;;;;;;9.57;7.27;;;;;;;17.82;100.00;98368.59;5104494;28;20044;-84
2021/07/25 02:37:11;;;;;;;10.68;6.30;;;;;;;17.78;100.00;98378.41;5093530;28;20294;-84
2021/07/25 02:39:39;;;;;;;14.35;6.97;;;;;;;17.61;100.00;98365.50;5105122;28;20054;-83
2021/07/25 02:42:08;;;;;;;13.35;6.47;;;;;;;17.59;100.00;98367.69;5099663;28;20035;-83
2021/07/25 02:44:40;;;;;;;12.57;6.97;;;;;;;17.61;100.00;98364.69;5106367;28;20044;-83
2021/07/25 02:47:11;;;;;;;13.32;6.80;;;;;;;17.54;100.00;98375.00;5104677;28;20059;-84
2021/07/25 02:49:42;;;;;;;15.85;7.35;;;;;;;17.54;100.00;98369.50;5103822;28;20046;-84
2021/07/25 02:52:10;;;;;;;15.95;8.13;;;;;;;17.41;100.00;98363.28;5098671;28;20050;-84
2021/07/25 02:54:46;;;;;;;22.80;8.27;;;;;;;17.59;100.00;98373.19;5098842;28;20047;-83
2021/07/25 02:57:13;;;;;;;15.13;7.95;;;;;;;17.69;100.00;98373.34;5103088;27;20347;-84
2021/07/25 02:59:45;;;;;;;10.93;7.70;;;;;;;17.66;100.00;98360.13;5106434;28;20067;-83
2021/07/25 03:02:15;;;;;;;15.30;9.00;;;;;;;17.62;100.00;98360.88;5104220;28;20293;-84
2021/07/25 03:04:47;;;;;;;10.77;8.05;;;;;;;17.46;100.00;98340.53;5105869;28;20044;-83
2021/07/25 03:07:23;;;;;;;13.43;8.98;;;;;;;17.54;100.00;98367.63;5105901;27;20382;-83
2021/07/25 03:09:50;;;;;;;12.80;7.50;;;;;;;17.55;100.00;98374.75;5100533;28;20046;-84
2021/07/25 03:12:21;;;;;;;11.57;8.20;;;;;;;17.64;100.00;98389.78;5095120;28;20040;-83
2021/07/25 03:14:52;;;;;;;13.32;7.70;;;;;;;17.60;100.00;98365.75;5104841;28;20459;-84
2021/07/25 03:17:19;;;;;;;19.95;8.75;;;;;;;17.58;100.00;98357.78;5109152;28;20044;-83
2021/07/25 03:19:49;;;;;;;15.80;8.45;;;;;;;17.60;100.00;98349.28;5104119;28;20051;-83
2021/07/25 03:22:22;;;;;;;18.73;8.95;;;;;;;17.63;100.00;98365.25;5102151;28;20054;-83
2021/07/25 03:24:56;;;;;;;14.85;8.68;;;;;;;17.77;100.00;98374.84;5099809;28;20074;-83
2021/07/25 03:27:23;;;;;;;13.50;7.78;;;;;;;17.42;100.00;98359.44;5097800;28;20058;-84
2021/07/25 03:29:50;;;;;;;17.45;8.48;;;;;;;17.51;100.00;98376.38;5096390;28;20044;-83
2021/07/25 03:32:18;;;;;;;21.60;8.45;;;;;;;17.52;100.00;98365.13;5100716;28;20407;-84
2021/07/25 03:34:45;;;;;;;13.30;8.80;;;;;;;17.72;100.00;98393.16;5100615;28;20059;-84
2021/07/25 03:37:13;;;;;;;13.68;8.75;;;;;;;17.67;100.00;98361.78;5118047;27;20044;-84
2021/07/25 03:39:43;;;;;;;19.60;8.65;;;;;;;17.73;100.00;98373.66;5095249;28;20461;-83
2021/07/25 03:42:11;;;;;;;15.90;8.57;;;;;;;17.64;100.00;98356.78;5107498;28;20055;-84
2021/07/25 03:44:38;;;;;;;17.30;8.85;;;;;;;17.52;100.00;98356.03;5096841;28;20043;-83
2021/07/25 03:47:05;;;;;;;13.70;8.00;;;;;;;17.46;100.00;98357.03;5109067;28;20371;-84
2021/07/25 03:49:32;;;;;;;15.48;8.27;;;;;;;17.51;100.00;98376.38;5101808;28;20054;-83
2021/07/25 03:52:00;;;;;;;16.17;8.35;;;;;;;17.44;100.00;98379.25;5100679;28;20043;-83
2021/07/25 03:54:27;;;;;;;16.63;8.40;;;;;;;17.41;100.00;98354.22;5109594;28;20127;-83
2021/07/25 03:56:58;;;;;;;14.07;8.70;;;;;;;17.43;100.00;98365.78;5101587;28;20047;-83
2021/07/25 03:59:25;;;;;;;15.50;9.43;;;;;;;17.42;100.00;98353.97;5102055;28;20052;-83
2021/07/25 04:01:54;;;;;;;13.20;9.00;;;;;;;17.56;100.00;98365.44;5098465;28;20048;-83
2021/07/25 04:04:20;;;;;;;12.75;9.20;;;;;;;17.52;100.00;98380.75;5106521;28;20048;-83
2021/07/25 04:06:47;;;;;;;17.83;8.73;;;;;;;17.47;100.00;98391.66;5107131;28;20040;-83
2021/07/25 04:09:14;;;;;;;23.42;8.50;;;;;;;17.43;100.00;98374.88;5098044;28;20058;-83
2021/07/25 04:11:41;;;;;;;10.75;7.47;;;;;;;17.55;100.00;98402.25;5106735;28;20055;-83
2021/07/25 04:14:09;;;;;;;14.57;7.40;;;;;;;17.48;100.00;98374.13;5100245;28;20047;-83
2021/07/25 04:16:36;;;;;;;12.63;7.78;;;;;;;17.46;100.00;98407.34;5094966;28;20044;-83
2021/07/25 04:19:06;;;;;;;18.67;8.07;;;;;;;17.48;100.00;98401.59;5098348;28;20514;-83
2021/07/25 04:21:33;;;;;;;12.57;7.95;;;;;;;17.54;100.00;98397.84;5101514;28;20376;-83
2021/07/25 04:24:00;;;;;;;11.80;8.10;;;;;;;17.55;100.00;98410.47;5111468;28;20054;-83
2021/07/25 04:26:27;;;;;;;12.25;8.18;;;;;;;17.29;100.00;98387.25;5102716;28;20114;-83
2021/07/25 04:28:54;;;;;;;15.73;8.45;;;;;;;17.31;100.00;98385.06;5106666;28;20052;-83
2021/07/25 04:31:23;;;;;;;16.55;8.18;;;;;;;17.45;100.00;98374.63;5113301;28;20051;-83
2021/07/25 04:33:53;;;;;;;18.80;8.90;;;;;;;17.58;100.00;98393.50;5102161;28;20062;-83
2021/07/25 04:36:26;;;;;;;13.25;7.75;;;;;;;17.48;100.00;98393.34;5101496;28;20054;-83
2021/07/25 04:38:54;;;;;;;14.77;7.38;;;;;;;17.60;100.00;98409.72;5107627;28;20058;-83
2021/07/25 04:41:26;;;;;;;14.35;7.43;;;;;;;17.65;100.00;98410.66;5113780;28;20048;-83
2021/07/25 04:43:59;;;;;;;12.60;7.60;;;;;;;17.71;100.00;98402.53;5115672;28;20051;-83
2021/07/25 04:46:29;;;;;;;14.48;7.68;;;;;;;17.67;100.00;98408.50;5103651;28;20040;-83
2021/07/25 04:49:03;;;;;;;12.13;8.05;;;;;;;17.61;100.00;98389.44;5104991;28;20059;-82
2021/07/25 04:51:32;;;;;;;9.70;6.88;;;;;;;17.65;100.00;98401.59;5106937;28;20109;-83
2021/07/25 04:54:07;;;;;;;12.52;8.35;;;;;;;17.61;100.00;98404.00;5098274;28;20059;-83
2021/07/25 04:56:40;;;;;;;17.15;8.27;;;;;;;17.78;100.00;98403.16;5102490;28;20044;-83
2021/07/25 04:59:15;;;;;;;12.10;8.15;;;;;;;17.88;100.00;98406.06;5099498;28;20056;-83
2021/07/25 05:01:46;;;;;;;13.70;8.90;;;;;;;17.85;100.00;98392.84;5100776;28;20108;-83
2021/07/25 05:04:14;;;;;;;18.70;8.63;;;;;;;18.12;100.00;98409.50;5102346;28;20063;-83
2021/07/25 05:06:41;;;;;;;18.52;9.25;;;;;;;18.12;100.00;98412.25;5109173;28;20052;-83
2021/07/25 05:09:09;;;;;;;13.93;9.10;;;;;;;18.11;100.00;98394.09;5107498;28;20039;-83
2021/07/25 05:11:44;;;;;;;26.48;9.35;;;;;;;18.12;100.00;98408.66;5109192;28;20043;-83
2021/07/25 05:14:20;;;;;;;14.27;7.65;;;;;;;18.10;100.00;98408.91;5102455;28;20381;-83
2021/07/25 05:16:58;;;;;;;22.35;9.45;;;;;;;18.13;100.00;98418.59;5101309;28;20052;-83
2021/07/25 05:19:29;;;;;;;17.77;7.80;;;;;;;18.20;100.00;98435.72;5112311;28;20048;-83
2021/07/25 05:22:07;;;;;;;17.75;8.68;;;;;;;18.19;100.00;98429.41;5112929;28;20055;-83
2021/07/25 05:24:42;;;;;;;14.52;8.90;;;;;;;18.30;100.00;98444.13;5104465;28;20051;-83
2021/07/25 05:27:10;;;;;;;18.30;9.75;;;;;;;18.29;100.00;98426.00;5105817;28;20051;-83
2021/07/25 05:29:39;;;;;;;13.45;9.05;;;;;;;18.35;100.00;98435.97;5110569;28;20052;-84
2021/07/25 05:32:08;;;;;;;22.55;9.52;;;;;;;18.21;100.00;98412.66;5106489;28;20547;-83
2021/07/25 05:34:36;;;;;;;14.10;8.85;;;;;;;18.23;100.00;98415.97;5110740;28;20052;-82
2021/07/25 05:37:03;;;;;;;13.57;8.05;;;;;;;18.37;100.00;98435.72;5102936;28;20525;-83
2021/07/25 05:39:30;;;;;;;15.50;8.93;;;;;;;18.32;100.00;98416.38;5100860;28;21161;-83
2021/07/25 05:41:57;;;;;;;16.23;8.82;;;;;;;18.52;100.00;98426.84;5097376;28;20146;-84
2021/07/25 05:44:24;;;;;;;15.82;9.05;;;;;;;18.56;100.00;98441.75;5104754;28;20047;-83
2021/07/25 05:46:51;;;;;;;13.82;8.68;;;;;;;18.46;100.00;98430.63;5099392;28;20047;-83
2021/07/25 05:49:20;;;;;;;13.85;9.35;;;;;;;18.47;100.00;98441.38;5106982;28;20044;-83
2021/07/25 05:51:47;;;;;;;17.05;8.25;;;;;;;18.67;100.00;98437.22;5096592;28;20503;-84
2021/07/25 05:54:14;;;;;;;18.30;9.05;;;;;;;18.58;100.00;98418.38;5106494;28;20048;-83
2021/07/25 05:56:41;;;;;;;12.02;8.00;;;;;;;18.65;100.00;98426.47;5102821;28;20454;-83
2021/07/25 05:59:10;;;;;;;11.48;8.60;;;;;;;18.58;100.00;98417.56;5098545;28;20048;-84
2021/07/25 06:01:40;;;;;;;13.50;8.38;;;;;;;18.62;100.00;98428.88;5106853;28;20048;-83
2021/07/25 06:04:07;;;;;;;;;;;;;;;18.64;100.00;98443.22;5104014;28;20453;-84
2021/07/25 06:06:35;;;;;;;14.40;8.60;;;;;;;18.64;100.00;98424.78;5104639;28;19943;-84
2021/07/25 06:09:03;;;;;;;14.73;8.25;;;;;;;18.65;100.00;98434.72;5102419;28;20035;-83
2021/07/25 06:11:31;;;;;;;16.17;7.53;;;;;;;18.49;100.00;98444.69;5098638;28;20089;-83
2021/07/25 06:13:58;;;;;;;15.77;9.15;;;;;;;18.55;100.00;98440.91;5101420;28;20059;-84
2021/07/25 06:16:25;;;;;;;14.02;8.02;;;;;;;18.71;100.00;98452.13;5108002;28;20039;-84
2021/07/25 06:18:52;;;;;;;19.00;7.93;;;;;;;18.67;100.00;98445.47;5099406;28;20143;-84
2021/07/25 06:21:20;;;;;;;13.77;8.13;;;;;;;18.79;100.00;98450.84;5095897;28;20048;-84
2021/07/25 06:23:49;;;;;;;11.30;7.60;;;;;;;18.85;99.41;98436.94;5100838;28;20047;-84
2021/07/25 06:26:16;;;;;;;10.80;7.38;;;;;;;18.92;99.58;98454.09;5107044;28;20044;-83
2021/07/25 06:28:44;;;;;;;12.70;7.97;;;;;;;18.80;99.55;98447.81;5107717;28;20426;-83
2021/07/25 06:31:13;;;;;;;16.60;7.82;;;;;;;18.96;99.14;98432.38;5104549;28;20398;-84
2021/07/25 06:33:39;;;;;;;16.95;7.90;;;;;;;19.18;98.46;98445.28;5105894;28;20457;-84
2021/07/25 06:36:10;;;;;;;11.95;7.38;;;;;;;19.24;98.18;98452.50;5103707;27;20056;-84
2021/07/25 06:38:38;;;;;;;10.02;7.15;;;;;;;19.17;99.40;98436.19;5115313;27;20040;-84
2021/07/25 06:41:06;;;;;;;13.95;7.35;;;;;;;19.37;99.04;98449.34;5102159;28;20052;-84
2021/07/25 06:43:34;;;;;;;12.80;7.53;;;;;;;19.39;98.08;98430.63;5104108;27;20047;-84
2021/07/25 06:46:00;;;;;;;11.27;6.93;;;;;;;19.54;98.11;98434.63;5094705;28;20043;-84
2021/07/25 06:48:29;;;;;;;12.18;7.45;;;;;;;19.60;96.95;98430.81;5104172;28;20101;-83
2021/07/25 06:50:57;;;;;;;10.10;6.95;;;;;;;19.72;96.50;98437.00;5110080;28;20044;-83
2021/07/25 06:53:28;;;;;;;13.50;7.90;;;;;;;19.74;97.91;98422.94;5105274;28;20044;-84
2021/07/25 06:55:56;;;;;;;12.20;7.70;;;;;;;19.68;97.80;98427.59;5095000;28;20134;-84
2021/07/25 06:58:25;;;;;;;13.95;6.63;;;;;;;19.86;98.08;98426.38;5099785;28;20048;-84
2021/07/25 07:00:54;;;;;;;10.85;7.30;;;;;;;19.95;97.75;98424.81;5103263;28;20475;-86
2021/07/25 07:03:21;;;;;;;12.77;8.10;;;;;;;20.08;99.04;98428.19;5102736;28;20054;-83
2021/07/25 07:05:49;;;;;;;17.63;8.75;;;;;;;20.16;97.48;98411.16;5104070;28;20040;-83
2021/07/25 07:08:16;;;;;;;15.98;8.48;;;;;;;20.22;98.02;98428.56;5106746;28;20051;-83
2021/07/25 07:10:48;;;;;;;15.00;8.63;;;;;;;20.48;98.72;98435.06;5100987;28;20044;-84
2021/07/25 07:13:16;;;;;;;15.00;8.95;;;;;;;20.50;95.17;98410.78;5097045;28;20086;-84
2021/07/25 07:15:46;;;;;;;11.02;8.00;;;;;;;20.68;93.89;98415.03;5106208;28;20044;-84
2021/07/25 07:18:13;;;;;;;16.85;8.20;;;;;;;20.74;94.14;98422.25;5100534;28;20733;-83
2021/07/25 07:20:43;;;;;;;18.65;8.73;;;;;;;21.01;91.73;98413.78;5105862;28;20096;-84
2021/07/25 07:23:14;;;;;;;11.75;7.78;;;;;;;21.86;84.40;98417.25;5107935;28;20089;-84
2021/07/25 07:25:43;;;;;;;12.52;7.20;;;;;;;22.30;81.94;98413.88;5112914;28;20051;-84
2021/07/25 07:28:12;;;;;;;14.73;8.00;;;;;;;22.61;80.95;98408.28;5102231;28;20494;-84
2021/07/25 07:30:39;;;;;;;14.20;7.43;;;;;;;22.94;79.07;98414.22;5099628;28;20305;-84
2021/07/25 07:33:09;;;;;;;11.27;7.45;;;;;;;23.62;79.54;98416.34;5106119;28;20138;-84
2021/07/25 07:35:36;;;;;;;14.30;6.95;;;;;;;23.51;74.08;98400.91;5107589;28;20061;-84
2021/07/25 07:38:10;;;;;;;16.85;6.38;;;;;;;23.57;74.90;98396.97;5108994;28;20525;-84
2021/07/25 07:40:39;;;;;;;10.48;5.88;;;;;;;23.07;73.46;98383.13;5096841;28;20504;-85
2021/07/25 07:43:07;;;;;;;12.18;6.25;;;;;;;23.29;76.98;98406.84;5101481;28;20274;-85
2021/07/25 07:45:39;;;;;;;8.50;5.32;;;;;;;23.21;74.03;98407.47;5092116;28;20040;-85
2021/07/25 07:48:08;;;;;;;8.65;5.15;;;;;;;23.30;72.03;98402.97;5095220;28;20495;-84
2021/07/25 07:50:35;;;;;;;12.88;6.38;;;;;;;22.95;75.08;98400.09;5098850;28;20075;-84
2021/07/25 07:53:03;;;;;;;9.50;5.20;;;;;;;23.25;76.04;98423.25;5097216;28;20348;-85
2021/07/25 07:55:30;;;;;;;7.55;5.20;;;;;;;23.28;74.94;98416.31;5113781;28;20499;-85
2021/07/25 07:57:57;;;;;;;11.15;5.50;;;;;;;23.25;75.81;98419.66;5103401;27;20044;-85
2021/07/25 08:00:24;;;;;;;9.77;5.13;;;;;;;22.70;73.55;98408.53;5103705;28;20044;-85
2021/07/25 08:02:51;;;;;;;10.85;6.15;;;;;;;22.58;76.63;98404.16;5104097;28;20419;-84
2021/07/25 08:05:20;;;;;;;11.02;6.20;;;;;;;22.54;78.58;98396.69;5102536;28;20097;-84
2021/07/25 08:07:47;;;;;;;9.05;6.07;;;;;;;22.60;80.81;98399.16;5111103;28;20066;-85
2021/07/25 08:10:14;;;;;;;10.73;6.07;;;;;;;22.53;76.90;98403.31;5100574;28;20047;-85
2021/07/25 08:12:41;;;;;;;11.85;6.03;;;;;;;22.43;79.39;98390.31;5108931;28;20051;-85
2021/07/25 08:15:12;;;;;;;10.30;6.22;;;;;;;22.53;78.56;98381.16;5110461;28;20051;-84
2021/07/25 08:17:39;;;;;;;9.10;5.95;;;;;;;22.78;74.91;98397.69;5103552;28;20128;-85
2021/07/25 08:20:14;;;;;;;9.40;5.45;;;;;;;22.80;75.08;98409.31;5105443;28;20067;-84
2021/07/25 08:22:49;;;;;;;17.23;6.15;;;;;;;22.78;73.23;98391.31;5100593;28;20142;-84
2021/07/25 08:25:16;;;;;;;10.20;5.53;;;;;;;23.11;72.24;98403.66;5096619;28;20047;-84
2021/07/25 08:27:44;;;;;;;8.93;5.07;;;;;;;23.24;74.07;98385.53;5109152;28;20051;-85
2021/07/25 08:30:12;;;;;;;9.35;5.43;;;;;;;23.78;73.96;98394.03;5108379;28;20535;-85
2021/07/25 08:32:39;;;;;;;10.63;5.03;;;;;;;23.98;67.72;98379.16;5109840;28;20047;-85
2021/07/25 08:35:07;;;;;;;12.68;5.80;;;;;;;24.00;70.87;98394.41;5102261;28;20059;-84
2021/07/25 08:37:34;;;;;;;9.50;5.72;;;;;;;23.65;72.84;98409.38;5111643;28;20051;-84
2021/07/25 08:40:03;;;;;;;8.70;5.45;;;;;;;23.25;72.41;98403.03;5112681;28;20050;-84
2021/07/25 08:42:36;;;;;;;11.38;6.25;;;;;;;23.07;72.50;98407.25;5108674;27;20043;-84
2021/07/25 08:45:04;;;;;;;8.35;5.45;;;;;;;23.48;72.72;98407.84;5114057;28;20444;-84
2021/07/25 08:47:39;;;;;;;6.25;4.85;;;;;;;23.36;72.80;98417.66;5112840;28;20487;-84
2021/07/25 08:50:16;;;;;;;9.73;5.20;;;;;;;23.39;73.90;98417.06;5106876;28;20419;-84
2021/07/25 08:52:45;;;;;;;9.95;5.50;;;;;;;23.25;74.98;98420.47;5098594;28;20075;-84
2021/07/25 08:55:17;;;;;;;8.77;5.50;;;;;;;23.08;72.70;98418.06;5114073;28;20121;-84
2021/07/25 08:57:47;;;;;;;7.95;5.30;;;;;;;22.94;72.05;98420.63;5114679;28;20047;-84
2021/07/25 09:00:16;;;;;;;9.98;5.47;;;;;;;22.46;75.65;98417.47;5105358;28;20054;-84
2021/07/25 09:02:44;;;;;;;6.22;4.95;;;;;;;22.62;77.73;98423.78;5110708;28;20059;-84
2021/07/25 09:05:14;;;;;;;10.68;6.43;;;;;;;22.60;76.61;98413.00;5104470;28;20550;-84
2021/07/25 09:07:46;;;;;;;8.77;5.88;;;;;;;22.66;79.73;98437.88;5095260;28;20079;-84
2021/07/25 09:10:17;;;;;;;10.32;5.50;;;;;;;22.51;78.21;98434.06;5105352;28;20047;-84
2021/07/25 09:12:45;;;;;;;12.10;5.75;;;;;;;22.55;80.47;98426.88;5100297;28;20040;-84
2021/07/25 09:15:16;;;;;;;10.02;5.35;;;;;;;22.41;79.65;98425.78;5099359;28;20048;-84
2021/07/25 09:17:44;;;;;;;9.68;5.32;;;;;;;22.24;78.99;98423.31;5105076;27;20537;-84
2021/07/25 09:20:23;;;;;;;12.68;6.47;;;;;;;22.37;77.38;98438.53;5111332;28;20043;-84
2021/07/25 09:23:09;;;;;;;7.32;4.88;;;;;;;22.53;77.20;98423.53;5105712;28;20044;-84
2021/07/25 09:25:40;;;;;;;9.52;5.15;;;;;;;22.43;75.36;98409.72;5100668;28;20122;-83
2021/07/25 09:28:36;;;;;;;9.63;5.28;;;;;;;22.41;75.75;98409.19;5102160;28;20127;-84
2021/07/25 09:31:12;;;;;;;7.07;4.65;;;;;;;22.60;76.04;98421.31;5058918;28;20133;-83
2021/07/25 09:33:43;;;;;;;8.48;5.13;;;;;;;22.75;76.94;98425.97;5106110;28;20052;-83
2021/07/25 09:36:16;;;;;;;6.53;4.80;;;;;;;22.83;76.53;98407.09;5101571;28;20411;-83
2021/07/25 09:38:45;;;;;;;7.80;4.88;;;;;;;22.93;77.15;98409.81;5106441;28;20514;-84
2021/07/25 09:41:24;;;;;;;5.68;4.20;;;;;;;22.93;75.62;98423.69;5113613;28;20126;-83
2021/07/25 09:44:03;;;;;;;8.38;4.95;;;;;;;22.97;77.01;98425.59;5115819;27;20039;-83
2021/07/25 09:46:42;;;;;;;6.68;4.90;;;;;;;23.12;74.92;98421.09;5102622;27;20066;-84
2021/07/25 09:49:09;;;;;;;7.18;4.75;;;;;;;23.06;77.09;98422.22;5105214;28;20056;-83
2021/07/25 09:51:36;;;;;;;7.93;5.57;;;;;;;23.18;76.51;98427.47;5100490;28;20047;-83
2021/07/25 09:54:05;;;;;;;6.32;5.00;;;;;;;23.36;74.07;98423.19;5099235;28;20043;-83
2021/07/25 09:56:39;;;;;;;7.67;4.83;;;;;;;23.60;72.94;98417.75;5098498;27;20044;-83
2021/07/25 09:59:26;;;;;;;8.48;4.70;;;;;;;23.69;71.98;98410.47;5093662;28;20054;-83
2021/07/25 10:01:53;;;;;;;6.22;4.47;;;;;;;24.09;71.90;98408.50;5108070;28;20056;-83
2021/07/25 10:04:27;;;;;;;6.97;4.45;;;;;;;24.58;67.69;98417.72;5092576;28;20509;-83
2021/07/25 10:06:55;;;;;;;5.40;4.70;;;;;;;24.70;66.81;98418.13;5100637;28;20044;-83
2021/07/25 10:09:25;;;;;;;6.88;4.53;;;;;;;24.76;68.30;98420.88;5103311;28;20551;-83
2021/07/25 10:11:58;;;;;;;10.43;4.80;;;;;;;24.40;69.39;98408.16;5102344;28;20039;-82
2021/07/25 10:14:29;;;;;;;6.55;4.43;;;;;;;23.97;71.24;98417.22;5103014;27;20048;-83
2021/07/25 10:16:57;;;;;;;9.85;4.57;;;;;;;23.81;70.22;98412.88;5099582;28;20054;-83
2021/07/25 10:19:28;;;;;;;7.50;4.28;;;;;;;23.63;72.83;98439.38;5112039;28;20360;-83
2021/07/25 10:21:57;;;;;;;10.32;4.25;;;;;;;23.36;72.10;98421.25;5110127;28;20559;-83
2021/07/25 10:24:25;;;;;;;7.85;4.95;;;;;;;23.45;73.72;98440.88;5104216;28;20057;-83
2021/07/25 10:26:55;;;;;;;8.65;4.90;;;;;;;23.50;75.04;98440.84;5108613;28;20497;-83
2021/07/25 10:29:24;;;;;;;7.45;4.80;;;;;;;23.06;79.50;98439.66;5099720;28;20044;-83
2021/07/25 10:31:52;;;;;;;6.50;5.10;;;;;;;23.07;80.41;98454.38;5105358;28;20048;-83
2021/07/25 10:34:21;;;;;;;5.53;4.55;;;;;;;22.88;78.27;98440.31;5106823;28;20047;-83
2021/07/25 10:36:50;;;;;;;6.20;4.47;;;;;;;22.91;78.20;98439.75;5098590;28;20097;-83
2021/07/25 10:39:17;;;;;;;7.28;4.80;;;;;;;22.82;76.84;98445.03;5100949;28;20040;-83
2021/07/25 10:41:47;;;;;;;5.43;4.32;;;;;;;22.75;75.80;98434.28;5108176;28;20044;-83
2021/07/25 10:44:18;;;;;;;6.78;4.15;;;;;;;22.83;76.27;98438.41;5091916;28;20119;-83
2021/07/25 10:46:45;;;;;;;8.45;4.30;;;;;;;22.89;75.66;98453.06;5111013;28;20394;-83
2021/07/25 10:49:16;;;;;;;7.88;4.50;;;;;;;22.88;77.46;98435.59;5106186;28;20044;-83
2021/07/25 10:51:58;;;;;;;9.60;4.68;;;;;;;23.02;78.61;98471.00;5106698;28;20052;-85
2021/07/25 10:54:35;;;;;;;8.55;5.05;;;;;;;22.88;80.38;98460.53;5103300;28;20040;-84
2021/07/25 10:57:06;;;;;;;18.48;5.93;;;;;;;22.72;82.90;98450.66;5095231;28;20048;-84
2021/07/25 10:59:46;;;;;;;12.30;5.20;;;;;;;22.73;82.62;98453.13;5101297;28;20046;-84
2021/07/25 11:02:17;;;;;;;8.10;5.35;;;;;;;22.74;82.00;98446.47;5096100;28;20040;-84
2021/07/25 11:05:09;;;;;;;10.13;5.18;;;;;;;22.75;79.55;98434.28;5104370;28;20055;-85
2021/07/25 11:07:40;;;;;;;8.43;5.57;;;;;;;22.88;80.39;98434.78;5095414;28;20044;-85
2021/07/25 11:10:10;;;;;;;10.15;5.18;;;;;;;23.09;81.93;98444.66;5105468;28;20131;-84
2021/07/25 11:13:17;;;;;;;7.50;5.00;;;;;;;23.16;78.12;98438.84;5098558;28;20253;-84
2021/07/25 11:15:46;;;;;;;7.38;4.45;;;;;;;23.06;81.39;98423.03;5101562;28;20451;-84
2021/07/25 11:18:34;;;;;;;6.47;4.95;;;;;;;23.14;80.42;98433.56;5105919;28;20131;-84
2021/07/25 11:21:04;;;;;;;6.05;4.53;;;;;;;23.03;80.22;98440.25;5104717;28;20075;-84
2021/07/25 11:23:41;;;;;;;8.70;5.30;;;;;;;22.92;82.39;98442.22;5097920;28;20040;-84
2021/07/25 11:26:38;;;;;;;8.75;5.70;;;;;;;23.04;81.19;98453.00;5094882;28;20416;-84
2021/07/25 11:29:10;;;;;;;6.15;4.75;;;;;;;22.78;80.82;98439.25;5105379;28;20134;-85
2021/07/25 11:31:48;;;;;;;7.95;4.32;;;;;;;22.83;82.38;98435.63;5095149;28;20059;-84
2021/07/25 11:34:36;;;;;;;7.82;4.95;;;;;;;22.78;77.92;98447.56;5105009;28;20125;-85
2021/07/25 11:37:13;;;;;;;6.00;4.10;;;;;;;22.50;83.16;98440.72;5106594;28;20044;-86
2021/07/25 11:39:39;;;;;;;8.13;4.18;;;;;;;22.39;83.97;98450.16;5107632;28;20047;-85
2021/07/25 11:42:10;;;;;;;5.82;4.47;;;;;;;22.20;84.88;98447.13;5100766;28;20051;-86
2021/07/25 11:44:43;;;;;;;6.35;4.25;;;;;;;22.28;82.66;98449.31;5107855;28;20123;-85
2021/07/25 11:47:33;;;;;;;6.13;4.68;;;;;;;22.07;86.01;98451.25;5097064;28;20131;-86
2021/07/25 11:50:00;;;;;;;6.72;4.70;;;;;;;22.04;86.39;98449.91;5098985;28;20476;-86
2021/07/25 11:52:39;;;;;;;7.72;4.82;;;;;;;22.17;88.79;98455.97;5097111;28;20052;-86